Ana Sayfa
METAR-TAF:

METAR-TAF

Havaalanları :

Kadala Havalimanı

Çita, Rusya

Enlem: 52-05N, Boylam: 113-29E, yükseklik: 685 m

Güncel hava durumu gözlemi

Rapor saat 12:00 UTC de 36 dakika önce yapıldı.
Rüzgar değişken yönden 2 kt
Sıcaklık -12°C
Nem 85%
Basınç 1018 hPa
Görüş mesafesi 10 km veya daha fazla

METAR: UIAA 131200Z VRB01MPS 9999 NSC M12/M14 Q1018 R29/450150 NOSIG RMK QFE704/0939

Saat: 21:36 (12:36 UTC)

Tahmin

Rapor saat 11:00 UTC de 1 saat ve 36 dakika önce yapıldı.
Ayın 13'si saat 12 UTC'den ayın 14'si saat 12 UTC'ye kadar geçerli Tahmin
Rüzgar güneybatıdan 6 kt
Görüş mesafesi 10 km veya daha fazla
Geçici
ayın 13'si saat 15 UTC'den ayın 13'si saat 24 UTC'ye kadar
Görüş mesafesi: 3100 m
Pus

TAF: UIAA 131100Z 1312/1412 23003MPS 9999 NSC TEMPO 1315/1324 3100 BR

4.000'den fazla havaalanı için hava durumu gözlemleri ve tahminleri (METAR ve TAF raporları).

Kullanılabilir istasyonlar harita üzerinde sarı ve kırmızı noktalarla gösterilir.

İstasyonun adını görmek için fareyi noktanın üzerinde gezdirin.

Sonrasında hava gözlem ve tahminlerini görmek için tıklayın.

Haritayı değiştirmek için: yaklaştırmak için siyah artı işaretli yeşil düğmeye ve uzaklaştırmak için de eksi işaretli düğmeye hızla tıklayın; bitişik haritalar için yeşil okları kullanın.


METAR-TAF: